Impacts METAR Board
IDs:

KPHX - Phoenix/Sky Harbor, AZ, US

Updated at: 1200 UTC 23 Mar 2019
Potential Impact None Slight Moderate High
Time 23/00Z 23/01Z 23/02Z 23/03Z 23/04Z 23/05Z 23/06Z 23/07Z 23/08Z 23/09Z 23/10Z 23/11Z 23/12Z
Temp72 71 69 69 66 64 63 63 59 57 57 56 55
Dewpt33 33 33 32 37 37 45 37 41 41 40 39 42
Altim30.00 30.00 30.01 30.03 30.05 30.06 30.06 30.05 30.05 30.05 30.06 30.05 30.05
VIS10 10 10 10 10 10 10 10 10 10 10 10 10
CIG-- -- -- -- -- -- -- -- -- -- -- -- --
CoverFEWFEWFEWFEWCLRCLRCLRCLRFEWFEWCLRFEWSCT
FltCatVFRVFRVFRVFRVFRVFRVFRVFRVFRVFRVFRVFRVFR
WX--------------------------
WDir2502902502600000909090100100
WSpd8 8 6 5 0 0 0 0 4 4 4 5 3
WGst-- -- -- -- -- -- -- -- -- -- -- -- --
Raw hourly METARs
KPHX 222351Z 25008KT 10SM FEW080 FEW250 22/01 A3000 RMK AO2 SLP150 T02220006 10233 20172 57013
KPHX 230051Z 29008KT 10SM FEW080 FEW250 22/01 A3000 RMK AO2 SLP151 T02170006
KPHX 230151Z 25006KT 10SM FEW080 FEW250 21/01 A3001 RMK AO2 SLP153 T02060006
KPHX 230251Z 26005KT 10SM FEW250 21/00 A3003 RMK AO2 SLP161 T02060000 53010
KPHX 230351Z 00000KT 10SM CLR 19/03 A3005 RMK AO2 SLP166 T01890028
KPHX 230451Z 00000KT 10SM CLR 18/03 A3006 RMK AO2 SLP169 T01780028
KPHX 230551Z 00000KT 10SM CLR 17/07 A3006 RMK AO2 SLP168 T01720072 10222 20167 51008
KPHX 230651Z 00000KT 10SM CLR 17/03 A3005 RMK AO2 SLP166 T01720028 402330100
KPHX 230751Z 09004KT 10SM FEW250 15/05 A3005 RMK AO2 SLP164 T01500050
KPHX 230851Z 09004KT 10SM FEW250 14/05 A3005 RMK AO2 SLP167 T01390050 55001
KPHX 230951Z 09004KT 10SM CLR 14/04 A3006 RMK AO2 SLP169 T01390044
KPHX 231051Z 10005KT 10SM FEW250 13/04 A3005 RMK AO2 SLP165 T01330039
KPHX 231151Z 10003KT 10SM SCT250 13/06 A3005 RMK AO2 SLP166 T01280056 10189 20122 55001



Page loaded:  12:18 UTC  |   05:18 AM Pacific  |   06:18 AM Mountain  |   07:18 AM Central  |   08:18 AM Eastern

 

ADVISORIES

FORECASTS

FORECASTS

OBSERVATIONS

USER TOOLS

ABOUT US